Terminal Aerodrome Forecast
Issued by NWS

Home | Current Version | Previous Version | Text Only | Print | Product List | Glossary Off
Versions: 1 2 3 4 5 6 7 8 9 10 11 12 13 14 15 16 17 18 19

000
FTUS41 KCLE 311700
TAFFDY
TAF
KFDY 311734Z 3118/0118 25008KT P6SM SKC
     FM312000 25008KT P6SM SCT050
     FM010000 23003KT P6SM SKC
     FM011000 VRB03KT 5SM BR SKC
     FM011300 22005KT P6SM SKC=

USA.gov is the U.S. government's official web portal to all federal, state and local government web resources and services.